createdAt,value
2023-06-14T00:01:15.616Z,51.56
2023-06-14T00:03:42.528Z,51.59
2023-06-14T00:06:09.239Z,51.88
2023-06-14T00:08:35.957Z,51.78
2023-06-14T00:11:02.618Z,51.91
2023-06-14T00:13:29.230Z,51.91
2023-06-14T00:15:56.236Z,52.27
2023-06-14T00:18:25.173Z,52.33
2023-06-14T00:20:53.069Z,52.44
2023-06-14T00:23:19.695Z,52.65
2023-06-14T00:25:46.539Z,52.81
2023-06-14T00:28:13.109Z,52.70
2023-06-14T00:30:39.878Z,53.01
2023-06-14T00:33:06.652Z,53.17
2023-06-14T00:35:33.374Z,53.16
2023-06-14T00:38:00.650Z,53.36
2023-06-14T00:40:27.587Z,53.27
2023-06-14T00:42:54.255Z,53.45
2023-06-14T00:45:20.982Z,53.63
2023-06-14T00:47:48.861Z,53.72
2023-06-14T00:50:15.595Z,53.81
2023-06-14T00:52:42.425Z,53.96
2023-06-14T00:55:09.609Z,54.06
2023-06-14T00:57:38.605Z,54.36
2023-06-14T01:00:10.294Z,54.46
2023-06-14T01:02:38.784Z,54.80
2023-06-14T01:05:07.898Z,55.19
2023-06-14T01:08:02.309Z,55.06
2023-06-14T01:10:52.439Z,54.79
2023-06-14T01:13:28.727Z,55.00
2023-06-14T01:15:57.200Z,54.90
2023-06-14T01:18:25.137Z,55.14
2023-06-14T01:20:51.876Z,55.33
2023-06-14T01:24:12.435Z,55.40
2023-06-14T01:26:46.817Z,55.68
2023-06-14T01:29:18.156Z,55.92
2023-06-14T01:31:46.501Z,56.19
2023-06-14T01:34:13.325Z,56.46
2023-06-14T01:36:42.364Z,56.33
2023-06-14T01:39:10.445Z,56.51
2023-06-14T01:41:37.321Z,56.88
2023-06-14T01:44:06.093Z,56.95
2023-06-14T01:46:32.646Z,57.21
2023-06-14T01:49:00.192Z,57.26
2023-06-14T01:51:26.705Z,57.21
2023-06-14T01:53:53.834Z,57.22
2023-06-14T01:56:21.113Z,57.36
2023-06-14T01:58:47.945Z,57.46
2023-06-14T02:01:17.209Z,57.28
2023-06-14T02:03:45.915Z,57.21
2023-06-14T02:06:13.509Z,57.23
2023-06-14T02:08:40.074Z,57.38
2023-06-14T02:11:06.657Z,57.31
2023-06-14T02:13:33.223Z,57.59
2023-06-14T02:16:00.838Z,57.73
2023-06-14T02:18:27.906Z,57.73
2023-06-14T02:20:54.856Z,57.87
2023-06-14T02:23:21.365Z,57.82
2023-06-14T02:25:47.920Z,58.18
2023-06-14T02:28:14.412Z,58.69
2023-06-14T02:30:42.021Z,58.76
2023-06-14T02:33:08.634Z,58.70
2023-06-14T02:35:35.728Z,59.29
2023-06-14T02:38:02.290Z,59.48
2023-06-14T02:40:28.841Z,59.37
2023-06-14T02:42:55.419Z,59.98
2023-06-14T02:45:22.170Z,60.11
2023-06-14T02:47:48.940Z,60.37
2023-06-14T02:50:17.384Z,60.57
2023-06-14T02:52:45.788Z,60.46
2023-06-14T02:55:12.744Z,60.47
2023-06-14T02:57:39.241Z,60.81
2023-06-14T03:00:10.948Z,60.45
2023-06-14T03:02:37.639Z,60.27
2023-06-14T03:05:04.918Z,60.45
2023-06-14T03:07:31.520Z,60.01
2023-06-14T03:09:58.174Z,60.35
2023-06-14T03:12:24.932Z,60.32
2023-06-14T03:14:52.750Z,60.24
2023-06-14T03:17:20.678Z,60.32
2023-06-14T03:19:47.260Z,60.52
2023-06-14T03:22:13.848Z,60.57
2023-06-14T03:24:40.697Z,60.65
2023-06-14T03:27:07.447Z,60.43
2023-06-14T03:29:34.165Z,60.61
2023-06-14T03:32:04.677Z,60.51
2023-06-14T03:34:31.590Z,60.51
2023-06-14T03:36:58.134Z,60.33
2023-06-14T03:39:25.001Z,60.45
2023-06-14T03:41:51.560Z,60.28
2023-06-14T03:44:19.715Z,60.34
2023-06-14T03:46:47.470Z,60.55
2023-06-14T03:49:14.594Z,60.67
2023-06-14T03:51:41.839Z,60.97
2023-06-14T03:54:28.681Z,61.03
2023-06-14T03:56:55.233Z,61.23
2023-06-14T03:59:28.060Z,61.31
2023-06-14T04:01:55.859Z,61.20
2023-06-14T04:04:22.815Z,61.52
2023-06-14T04:06:49.641Z,61.38
2023-06-14T04:09:16.704Z,61.43
2023-06-14T04:11:43.286Z,61.14
2023-06-14T04:14:09.913Z,61.03
2023-06-14T04:16:36.833Z,61.12
2023-06-14T04:19:03.594Z,60.92
2023-06-14T04:21:30.353Z,61.17
2023-06-14T04:23:57.069Z,60.76
2023-06-14T04:26:27.507Z,60.70
2023-06-14T04:28:57.773Z,60.63
2023-06-14T04:31:27.673Z,60.63
2023-06-14T04:33:54.903Z,60.56
2023-06-14T04:36:21.670Z,61.04
2023-06-14T04:38:50.504Z,60.80
2023-06-14T04:41:17.439Z,60.71
2023-06-14T04:43:44.251Z,60.48
2023-06-14T04:46:11.983Z,60.74
2023-06-14T04:48:41.827Z,61.26
2023-06-14T04:51:09.873Z,61.14
2023-06-14T04:53:37.009Z,61.21
2023-06-14T04:56:05.161Z,60.99
2023-06-14T04:58:32.087Z,60.57
2023-06-14T05:01:00.308Z,60.74
2023-06-14T05:03:28.241Z,61.10
2023-06-14T05:05:56.962Z,61.09
2023-06-14T05:08:27.721Z,60.61
2023-06-14T05:10:54.325Z,60.20
2023-06-14T05:13:21.909Z,59.45
2023-06-14T05:15:48.608Z,59.37
2023-06-14T05:18:16.860Z,59.13
2023-06-14T05:20:43.632Z,59.39
2023-06-14T05:23:16.209Z,59.20
2023-06-14T05:25:47.529Z,58.58
2023-06-14T05:28:14.345Z,58.88
2023-06-14T05:30:41.260Z,58.69
2023-06-14T05:33:08.020Z,58.45
2023-06-14T05:35:34.799Z,58.47
2023-06-14T05:38:01.670Z,58.18
2023-06-14T05:40:28.304Z,58.02
2023-06-14T05:42:54.903Z,57.89
2023-06-14T05:45:21.454Z,57.64
2023-06-14T05:47:48.106Z,57.55
2023-06-14T05:50:14.784Z,57.47
2023-06-14T05:52:41.363Z,56.76
2023-06-14T05:55:08.380Z,56.55
2023-06-14T05:57:34.985Z,56.58
2023-06-14T06:00:01.874Z,56.12
2023-06-14T06:02:28.624Z,55.86
2023-06-14T06:04:55.249Z,55.79
2023-06-14T06:07:21.776Z,55.16
2023-06-14T06:09:48.975Z,54.92
2023-06-14T06:12:15.985Z,54.85
2023-06-14T06:14:44.248Z,54.71
2023-06-14T06:17:11.051Z,54.15
2023-06-14T06:19:37.666Z,54.14
2023-06-14T06:22:07.318Z,53.55
2023-06-14T06:24:33.918Z,53.27
2023-06-14T06:27:01.439Z,53.09
2023-06-14T06:29:28.129Z,52.25
2023-06-14T06:31:54.702Z,51.24
2023-06-14T06:34:21.361Z,50.60
2023-06-14T06:36:47.942Z,50.11
2023-06-14T06:39:16.168Z,49.16
2023-06-14T06:41:42.892Z,48.64
2023-06-14T06:44:11.761Z,48.08
2023-06-14T06:46:42.334Z,47.76
2023-06-14T06:49:09.579Z,47.37
2023-06-14T06:51:38.148Z,46.19
2023-06-14T06:54:04.880Z,45.58
2023-06-14T06:56:32.929Z,45.47
2023-06-14T06:58:59.520Z,45.14
2023-06-14T07:01:27.329Z,44.05
2023-06-14T07:03:54.052Z,44.29
2023-06-14T07:06:21.373Z,43.39
2023-06-14T07:08:49.756Z,43.58
2023-06-14T07:11:16.277Z,42.55
2023-06-14T07:13:42.889Z,42.67
2023-06-14T07:16:09.589Z,42.46
2023-06-14T07:18:36.260Z,42.52
2023-06-14T07:21:03.093Z,42.25
2023-06-14T07:23:29.789Z,42.27
2023-06-14T07:25:56.665Z,42.37
2023-06-14T07:28:23.321Z,41.66
2023-06-14T07:30:51.263Z,41.95
2023-06-14T07:33:20.966Z,41.13
2023-06-14T07:35:48.996Z,41.12
2023-06-14T07:38:15.534Z,41.23
2023-06-14T07:40:42.342Z,40.41
2023-06-14T07:43:08.842Z,40.33
2023-06-14T07:45:35.591Z,40.32
2023-06-14T07:48:02.309Z,41.03
2023-06-14T07:50:29.813Z,40.50
2023-06-14T07:52:56.354Z,40.40
2023-06-14T07:55:23.557Z,39.57
2023-06-14T07:57:50.819Z,39.65
2023-06-14T08:00:20.486Z,38.92
2023-06-14T08:02:48.252Z,38.77
2023-06-14T08:05:15.521Z,38.52
2023-06-14T08:07:42.784Z,38.19
2023-06-14T08:10:09.720Z,38.06
2023-06-14T08:12:37.836Z,38.66
2023-06-14T08:15:13.798Z,38.48
2023-06-14T08:17:41.800Z,36.95
2023-06-14T08:20:09.210Z,35.82
2023-06-14T08:22:37.278Z,36.79
2023-06-14T08:25:04.819Z,37.72
2023-06-14T08:27:31.972Z,37.33
2023-06-14T08:29:58.539Z,36.79
2023-06-14T08:32:25.421Z,36.50
2023-06-14T08:35:04.231Z,34.95
2023-06-14T08:37:32.171Z,34.99
2023-06-14T08:39:58.925Z,34.82
2023-06-14T08:42:32.052Z,35.08
2023-06-14T08:44:59.380Z,34.81
2023-06-14T08:47:27.830Z,34.43
2023-06-14T08:49:58.427Z,34.43
2023-06-14T08:52:31.481Z,35.12
2023-06-14T08:54:58.544Z,34.31
2023-06-14T08:57:26.654Z,33.59
2023-06-14T08:59:54.823Z,33.83
2023-06-14T09:02:23.431Z,34.71
2023-06-14T09:04:53.169Z,34.24
2023-06-14T09:07:20.026Z,33.34
2023-06-14T09:10:02.955Z,32.10
2023-06-14T09:12:33.614Z,32.67
2023-06-14T09:15:01.704Z,32.33
2023-06-14T09:17:28.452Z,32.10
2023-06-14T09:19:56.463Z,31.53
2023-06-14T09:22:23.079Z,31.53
2023-06-14T09:24:49.576Z,32.00
2023-06-14T09:27:17.322Z,31.63
2023-06-14T09:29:43.946Z,32.20
2023-06-14T09:32:10.874Z,31.73
2023-06-14T09:34:38.361Z,30.95
2023-06-14T09:37:05.824Z,30.21
2023-06-14T09:39:32.699Z,29.75
2023-06-14T09:41:59.266Z,29.81
2023-06-14T09:44:29.705Z,29.82
2023-06-14T09:46:57.630Z,29.33
2023-06-14T09:49:26.637Z,28.93
2023-06-14T09:51:55.045Z,28.78
2023-06-14T09:54:27.073Z,28.38
2023-06-14T09:56:54.284Z,27.43
2023-06-14T09:59:30.595Z,27.14
2023-06-14T10:02:00.896Z,26.24
2023-06-14T10:04:30.801Z,27.04
2023-06-14T10:06:58.185Z,27.25
2023-06-14T10:09:25.525Z,27.96
2023-06-14T10:11:52.393Z,26.66
2023-06-14T10:14:19.801Z,27.16
2023-06-14T10:17:07.867Z,27.33
2023-06-14T10:19:45.568Z,27.33
2023-06-14T10:22:16.001Z,27.16
2023-06-14T10:24:46.858Z,28.60
2023-06-14T10:27:19.570Z,27.58
2023-06-14T10:29:55.453Z,27.82
2023-06-14T10:32:24.712Z,27.57
2023-06-14T10:34:57.273Z,27.82
2023-06-14T10:37:24.082Z,27.46
2023-06-14T10:39:51.651Z,26.71
2023-06-14T10:42:18.869Z,26.31
2023-06-14T10:44:47.600Z,25.69
2023-06-14T10:47:38.991Z,24.89
2023-06-14T10:50:12.039Z,26.07
2023-06-14T10:52:46.369Z,25.29
2023-06-14T10:55:20.225Z,25.28
2023-06-14T10:57:59.681Z,24.70
2023-06-14T11:00:29.581Z,25.48
2023-06-14T11:03:09.201Z,25.79
2023-06-14T11:05:56.123Z,26.53
2023-06-14T11:08:29.669Z,25.66
2023-06-14T11:11:00.635Z,25.53
2023-06-14T11:13:30.480Z,25.85
2023-06-14T11:15:59.437Z,26.41
2023-06-14T11:18:26.344Z,25.52
2023-06-14T11:20:53.174Z,25.43
2023-06-14T11:23:20.195Z,26.83
2023-06-14T11:25:53.590Z,27.48
2023-06-14T11:28:24.736Z,27.83
2023-06-14T11:31:04.551Z,28.29
2023-06-14T11:33:31.428Z,29.77
2023-06-14T11:35:58.053Z,29.99
2023-06-14T11:38:25.082Z,30.37
2023-06-14T11:40:51.648Z,29.05
2023-06-14T11:43:18.618Z,29.28
2023-06-14T11:45:57.008Z,30.23
2023-06-14T11:48:42.340Z,30.30
2023-06-14T11:51:09.381Z,29.71
2023-06-14T11:53:36.693Z,30.12
2023-06-14T11:56:04.162Z,31.33
2023-06-14T11:58:31.625Z,31.61
2023-06-14T12:00:59.449Z,32.34
2023-06-14T12:03:28.637Z,32.45
2023-06-14T12:06:13.510Z,30.96
2023-06-14T12:08:40.902Z,30.72
2023-06-14T12:11:18.257Z,31.34
2023-06-14T12:13:45.138Z,31.65
2023-06-14T12:16:13.277Z,31.71
2023-06-14T12:18:42.382Z,31.36
2023-06-14T12:21:11.595Z,28.49
2023-06-14T12:23:47.436Z,28.09
2023-06-14T12:26:18.452Z,28.08
2023-06-14T12:28:49.159Z,28.62
2023-06-14T12:31:17.122Z,27.64
2023-06-14T12:33:44.451Z,28.25
2023-06-14T12:36:11.688Z,28.86
2023-06-14T12:38:38.759Z,30.70
2023-06-14T12:41:05.637Z,31.06
2023-06-14T12:43:32.174Z,30.05
2023-06-14T12:45:59.296Z,29.25
2023-06-14T12:48:26.037Z,28.75
2023-06-14T12:50:52.586Z,28.89
2023-06-14T12:53:19.616Z,28.65
2023-06-14T12:55:46.403Z,28.57
2023-06-14T12:58:13.990Z,29.16
2023-06-14T13:00:41.786Z,30.09
2023-06-14T13:03:08.444Z,30.98
2023-06-14T13:05:35.250Z,32.31
2023-06-14T13:08:01.886Z,33.22
2023-06-14T13:10:29.280Z,34.05
2023-06-14T13:12:55.909Z,34.84
2023-06-14T13:15:22.582Z,34.22
2023-06-14T13:17:50.019Z,34.07
2023-06-14T13:20:20.895Z,34.85
2023-06-14T13:22:47.953Z,34.78
2023-06-14T13:25:14.656Z,33.76
2023-06-14T13:27:41.324Z,32.25
2023-06-14T13:30:08.479Z,32.29
2023-06-14T13:32:35.104Z,33.11
2023-06-14T13:35:01.942Z,34.10
2023-06-14T13:37:29.066Z,35.08
2023-06-14T13:39:56.490Z,35.53
2023-06-14T13:42:25.642Z,36.37
2023-06-14T13:44:53.726Z,36.76
2023-06-14T13:47:20.553Z,37.01
2023-06-14T13:49:47.085Z,36.79
2023-06-14T13:52:14.732Z,37.18
2023-06-14T13:54:41.500Z,37.61
2023-06-14T13:57:09.051Z,37.68
2023-06-14T13:59:35.897Z,37.94
2023-06-14T14:02:03.291Z,37.27
2023-06-14T14:04:30.153Z,37.52
2023-06-14T14:06:56.831Z,37.50
2023-06-14T14:09:23.630Z,37.08
2023-06-14T14:11:50.304Z,38.02
2023-06-14T14:14:16.846Z,37.47
2023-06-14T14:16:43.493Z,37.71
2023-06-14T14:19:10.241Z,37.70
2023-06-14T14:21:37.060Z,37.60
2023-06-14T14:24:03.931Z,37.82
2023-06-14T14:26:30.500Z,37.80
2023-06-14T14:28:57.073Z,37.31
2023-06-14T14:31:23.742Z,36.90
2023-06-14T14:33:50.319Z,37.54
2023-06-14T14:36:18.027Z,38.11
2023-06-14T14:38:44.576Z,37.80
2023-06-14T14:41:11.578Z,37.93
2023-06-14T14:43:38.195Z,37.51
2023-06-14T14:46:04.822Z,38.00
2023-06-14T14:48:31.390Z,36.84
2023-06-14T14:50:57.969Z,37.74
2023-06-14T14:53:24.812Z,37.86
2023-06-14T14:55:51.334Z,36.80
2023-06-14T14:58:20.909Z,35.92
2023-06-14T15:00:48.222Z,36.23
2023-06-14T15:03:15.668Z,35.96
2023-06-14T15:05:42.375Z,36.39
2023-06-14T15:08:12.912Z,35.92
2023-06-14T15:10:42.750Z,35.03
2023-06-14T15:13:09.548Z,35.13
2023-06-14T15:15:36.986Z,34.21
2023-06-14T15:18:04.537Z,33.98
2023-06-14T15:20:32.590Z,33.77
2023-06-14T15:23:00.526Z,33.59
2023-06-14T15:25:28.162Z,33.75
2023-06-14T15:27:55.538Z,34.40
2023-06-14T15:30:25.424Z,35.21
2023-06-14T15:32:52.123Z,35.56
2023-06-14T15:35:22.102Z,35.78
2023-06-14T15:37:50.772Z,36.73
2023-06-14T15:40:18.134Z,37.21
2023-06-14T15:42:45.359Z,36.93
2023-06-14T15:45:12.068Z,37.09
2023-06-14T15:47:38.969Z,37.52
2023-06-14T15:50:08.819Z,37.92
2023-06-14T15:52:36.069Z,37.85
2023-06-14T15:55:04.305Z,37.75
2023-06-14T15:57:31.297Z,38.29
2023-06-14T15:59:57.882Z,37.36
2023-06-14T16:02:24.731Z,37.71
2023-06-14T16:04:53.189Z,37.79
2023-06-14T16:07:19.993Z,36.54
2023-06-14T16:09:46.697Z,37.45
2023-06-14T16:12:14.215Z,38.18
2023-06-14T16:14:40.969Z,37.77
2023-06-14T16:17:07.790Z,37.35
2023-06-14T16:19:34.469Z,38.04
2023-06-14T16:22:01.380Z,37.64
2023-06-14T16:24:28.444Z,36.79
2023-06-14T16:26:55.192Z,37.00
2023-06-14T16:29:22.128Z,37.01
2023-06-14T16:31:48.985Z,37.32
2023-06-14T16:34:16.780Z,37.73
2023-06-14T16:36:44.616Z,38.48
2023-06-14T16:39:13.230Z,37.67
2023-06-14T16:41:39.847Z,38.34
2023-06-14T16:44:08.034Z,38.35
2023-06-14T16:46:35.944Z,38.51
2023-06-14T16:49:03.609Z,38.81
2023-06-14T16:51:30.735Z,38.76
2023-06-14T16:53:57.390Z,38.53
2023-06-14T16:56:27.836Z,38.90
2023-06-14T16:58:59.269Z,38.62
2023-06-14T17:01:26.809Z,38.49
2023-06-14T17:03:54.040Z,38.26
2023-06-14T17:06:22.504Z,38.74
2023-06-14T17:08:52.272Z,39.29
2023-06-14T17:11:23.475Z,39.51
2023-06-14T17:13:51.419Z,39.50
2023-06-14T17:16:18.629Z,39.81
2023-06-14T17:18:45.630Z,39.56
2023-06-14T17:21:14.555Z,39.38
2023-06-14T17:23:41.229Z,39.00
2023-06-14T17:26:07.918Z,39.54
2023-06-14T17:28:36.480Z,40.01
2023-06-14T17:31:03.598Z,39.42
2023-06-14T17:33:30.545Z,40.18
2023-06-14T17:35:57.361Z,39.94
2023-06-14T17:38:24.036Z,39.76
2023-06-14T17:40:51.463Z,39.62
2023-06-14T17:43:19.170Z,39.59
2023-06-14T17:45:45.841Z,39.26
2023-06-14T17:48:12.549Z,39.26
2023-06-14T17:50:40.638Z,39.58
2023-06-14T17:53:07.877Z,39.51
2023-06-14T17:55:37.190Z,39.08
2023-06-14T17:58:06.763Z,39.03
2023-06-14T18:00:33.710Z,39.47
2023-06-14T18:03:01.782Z,40.01
2023-06-14T18:05:34.170Z,40.25
2023-06-14T18:08:00.744Z,40.50
2023-06-14T18:10:27.971Z,40.76
2023-06-14T18:12:54.729Z,40.85
2023-06-14T18:15:21.713Z,40.78
2023-06-14T18:17:51.840Z,41.08
2023-06-14T18:20:19.518Z,41.50
2023-06-14T18:22:47.662Z,41.65
2023-06-14T18:25:15.438Z,41.99
2023-06-14T18:27:42.662Z,42.64
2023-06-14T18:30:11.649Z,42.45
2023-06-14T18:32:39.689Z,43.52
2023-06-14T18:35:06.843Z,44.21
2023-06-14T18:37:34.234Z,44.65
2023-06-14T18:40:00.914Z,44.97
2023-06-14T18:42:27.654Z,45.68
2023-06-14T18:44:54.208Z,46.91
2023-06-14T18:47:20.832Z,47.16
2023-06-14T18:49:47.347Z,47.71
2023-06-14T18:52:14.463Z,48.91
2023-06-14T18:54:41.006Z,50.03
2023-06-14T18:57:08.034Z,50.49
2023-06-14T18:59:34.893Z,50.49
2023-06-14T19:02:01.565Z,50.66
2023-06-14T19:04:28.218Z,50.83
2023-06-14T19:06:54.798Z,51.08
2023-06-14T19:09:21.587Z,51.43
2023-06-14T19:11:48.568Z,51.00
2023-06-14T19:14:15.583Z,51.83
2023-06-14T19:16:42.572Z,52.21
2023-06-14T19:19:09.140Z,52.40
2023-06-14T19:21:35.958Z,52.63
2023-06-14T19:24:02.679Z,52.79
2023-06-14T19:26:31.169Z,52.30
2023-06-14T19:28:58.639Z,52.00
2023-06-14T19:31:26.673Z,51.75
2023-06-14T19:33:53.815Z,51.48
2023-06-14T19:36:23.492Z,51.75
2023-06-14T19:38:50.080Z,51.39
2023-06-14T19:41:18.284Z,51.61
2023-06-14T19:43:45.762Z,51.54
2023-06-14T19:46:12.953Z,50.96
2023-06-14T19:48:39.622Z,51.11
2023-06-14T19:51:07.485Z,51.23
2023-06-14T19:53:34.050Z,51.26
2023-06-14T19:56:00.718Z,51.38
2023-06-14T19:58:27.407Z,51.77
2023-06-14T20:00:54.227Z,52.59
2023-06-14T20:03:21.084Z,52.79
2023-06-14T20:05:50.073Z,52.94
2023-06-14T20:08:25.740Z,53.19
2023-06-14T20:10:53.467Z,53.48
2023-06-14T20:13:20.532Z,53.67
2023-06-14T20:15:47.311Z,54.13
2023-06-14T20:18:13.965Z,54.41
2023-06-14T20:20:44.771Z,54.60
2023-06-14T20:23:11.468Z,54.56
2023-06-14T20:25:38.003Z,54.64
2023-06-14T20:28:04.811Z,54.99
2023-06-14T20:30:31.445Z,55.11
2023-06-14T20:32:58.797Z,55.39
2023-06-14T20:35:25.631Z,55.37
2023-06-14T20:37:52.265Z,55.66
2023-06-14T20:40:26.242Z,55.67
2023-06-14T20:42:57.809Z,55.98
2023-06-14T20:45:27.134Z,56.66
2023-06-14T20:47:54.464Z,57.26
2023-06-14T20:50:21.621Z,57.33
2023-06-14T20:52:49.393Z,57.93
2023-06-14T20:55:16.676Z,58.05
2023-06-14T20:57:43.179Z,58.05
2023-06-14T21:00:12.865Z,58.66
2023-06-14T21:02:40.723Z,59.10
2023-06-14T21:05:11.329Z,59.08
2023-06-14T21:07:38.117Z,59.37
2023-06-14T21:10:05.681Z,59.47
2023-06-14T21:12:32.323Z,59.77
2023-06-14T21:14:59.345Z,60.01
2023-06-14T21:17:27.219Z,60.01
2023-06-14T21:19:53.748Z,59.84
2023-06-14T21:22:20.503Z,60.32
2023-06-14T21:24:47.198Z,60.66
2023-06-14T21:27:13.744Z,60.90
2023-06-14T21:29:42.004Z,60.50
2023-06-14T21:32:09.980Z,60.69
2023-06-14T21:34:38.686Z,60.59
2023-06-14T21:37:06.299Z,60.65
2023-06-14T21:39:33.127Z,60.98
2023-06-14T21:41:59.651Z,61.23
2023-06-14T21:44:26.216Z,61.40
2023-06-14T21:46:54.179Z,61.41
2023-06-14T21:49:20.734Z,61.63
2023-06-14T21:51:47.328Z,61.67
2023-06-14T21:54:14.127Z,61.54
2023-06-14T21:56:40.727Z,61.81
2023-06-14T21:59:07.267Z,61.96
2023-06-14T22:01:33.809Z,62.01
2023-06-14T22:04:00.649Z,62.23
2023-06-14T22:06:27.266Z,62.23
2023-06-14T22:08:54.678Z,62.37
2023-06-14T22:11:22.185Z,62.48
2023-06-14T22:13:50.340Z,62.33
2023-06-14T22:16:17.612Z,63.16
2023-06-14T22:18:46.807Z,63.61
2023-06-14T22:21:15.725Z,63.48
2023-06-14T22:23:45.001Z,63.31
2023-06-14T22:26:15.872Z,63.38
2023-06-14T22:28:49.975Z,63.43
2023-06-14T22:31:18.058Z,63.73
2023-06-14T22:33:44.716Z,63.63
2023-06-14T22:36:17.437Z,63.60
2023-06-14T22:38:46.609Z,63.77
2023-06-14T22:41:14.112Z,63.47
2023-06-14T22:43:43.458Z,63.42
2023-06-14T22:46:20.756Z,63.37
2023-06-14T22:48:50.889Z,63.39
2023-06-14T22:51:19.270Z,63.54
2023-06-14T22:53:46.044Z,63.67
2023-06-14T22:56:14.412Z,64.32
2023-06-14T22:58:42.988Z,64.58
2023-06-14T23:01:15.407Z,64.71
2023-06-14T23:03:47.198Z,64.87
2023-06-14T23:06:15.878Z,64.92
2023-06-14T23:08:45.584Z,64.86
2023-06-14T23:11:15.138Z,65.21
2023-06-14T23:13:45.429Z,65.39
2023-06-14T23:16:14.103Z,65.50
2023-06-14T23:18:40.596Z,65.65
2023-06-14T23:21:07.725Z,65.71
2023-06-14T23:23:37.247Z,65.60
2023-06-14T23:26:06.110Z,65.26
2023-06-14T23:28:34.496Z,64.93
2023-06-14T23:31:02.258Z,64.82
2023-06-14T23:33:29.204Z,64.62
2023-06-14T23:35:58.314Z,64.57
2023-06-14T23:38:25.445Z,65.10
2023-06-14T23:40:53.612Z,65.26
2023-06-14T23:43:20.467Z,65.73
2023-06-14T23:45:48.215Z,65.48
2023-06-14T23:48:15.038Z,66.03
2023-06-14T23:50:41.909Z,65.97
2023-06-14T23:53:10.422Z,65.80
2023-06-14T23:55:38.546Z,66.14
2023-06-14T23:58:05.151Z,66.15
